Terminal Aerodrome Forecast
Issued by NWS

Home | Current Version | Previous Version | Text Only | Print | Product List | Glossary On
Versions: 1 2 3 4 5 6 7 8 9 10 11 12 13 14
734
FTUS42 TJSJ 141911 AAA
TAFNCM
TAF AMD
TNCM 141911Z 1419/1518 12010KT P6SM VCSH SCT018
      TEMPO 1419/1421 BKN040
     FM142300 10010KT P6SM SCT018 SCT030
     FM151300 11015KT P6SM SCT020 SCT040=

USA.gov is the U.S. government's official web portal to all federal, state and local government web resources and services.